OXFORD AIRPORT | Local Weather
17097
page-template-default,page,page-id-17097,ajax_fade,page_not_loaded,,hide_top_bar_on_mobile_header,qode-child-theme-ver-1.0.0,qode-theme-ver-10.0,wpb-js-composer js-comp-ver-4.11.2.1,vc_responsive
 

LOCAL WEATHER

METAR & TAF for EGTK Oxford Kidlington.

Available data for EGTK from the past hour
OXFORD
Metar
EGTK 172120Z 20012KT 9999 -RA SCT014 BKN017 04/03 Q1003

21:20 UTC

Wind: 200° 12kt

Visibility: 9999 m

Sky: SCT 1400 ft

Temp: 4 deg C / 39.2 deg F

Dewpoint: 3 deg C / 37.4 deg F

Pressure: 1003 hPa

TAF
TAF EGTK 172009Z 1721/1723 27015KT 9999 SCT025 BECMG 1721/1723 27020G30KT 7000 RA BKN007